createdAt,value
2019-06-20T00:00:46.953Z,45.24
2019-06-20T00:03:17.205Z,44.90
2019-06-20T00:05:47.482Z,45.09
2019-06-20T00:08:18.984Z,45.24
2019-06-20T00:10:49.835Z,45.26
2019-06-20T00:13:23.637Z,45.29
2019-06-20T00:16:02.885Z,45.24
2019-06-20T00:18:33.481Z,45.21
2019-06-20T00:21:07.072Z,45.26
2019-06-20T00:23:37.378Z,45.18
2019-06-20T00:26:07.586Z,45.26
2019-06-20T00:28:37.842Z,45.24
2019-06-20T00:31:09.744Z,45.16
2019-06-20T00:33:40.060Z,45.42
2019-06-20T00:36:10.320Z,45.48
2019-06-20T00:38:40.528Z,46.04
2019-06-20T00:41:10.806Z,45.85
2019-06-20T00:43:41.565Z,45.07
2019-06-20T00:46:11.889Z,43.50
2019-06-20T00:48:42.431Z,43.90
2019-06-20T00:51:12.627Z,43.64
2019-06-20T00:53:44.002Z,43.70
2019-06-20T00:56:15.764Z,44.20
2019-06-20T00:58:46.004Z,43.37
2019-06-20T01:01:17.466Z,43.77
2019-06-20T01:03:47.873Z,43.85
2019-06-20T01:06:19.635Z,44.73
2019-06-20T01:08:51.886Z,44.38
2019-06-20T01:11:22.072Z,44.20
2019-06-20T01:13:52.992Z,44.32
2019-06-20T01:16:23.909Z,43.56
2019-06-20T01:18:54.117Z,43.40
2019-06-20T01:21:24.673Z,43.82
2019-06-20T01:23:58.554Z,43.75
2019-06-20T01:26:30.323Z,43.60
2019-06-20T01:29:00.548Z,44.41
2019-06-20T01:31:33.732Z,44.55
2019-06-20T01:34:07.659Z,44.20
2019-06-20T01:36:38.377Z,44.87
2019-06-20T01:39:08.991Z,44.53
2019-06-20T01:41:39.155Z,44.85
2019-06-20T01:44:09.377Z,44.97
2019-06-20T01:46:40.424Z,46.57
2019-06-20T01:49:10.632Z,45.23
2019-06-20T01:51:43.163Z,47.20
2019-06-20T01:54:13.386Z,45.97
2019-06-20T01:56:44.230Z,45.54
2019-06-20T01:59:14.403Z,45.24
2019-06-20T02:01:44.630Z,45.03
2019-06-20T02:04:14.976Z,45.57
2019-06-20T02:06:48.222Z,45.50
2019-06-20T02:09:18.432Z,45.50
2019-06-20T02:11:48.642Z,45.37
2019-06-20T02:14:19.951Z,45.20
2019-06-20T02:16:50.618Z,46.30
2019-06-20T02:19:20.866Z,45.30
2019-06-20T02:21:51.109Z,45.11
2019-06-20T02:24:23.734Z,45.20
2019-06-20T02:26:54.033Z,45.35
2019-06-20T02:29:24.749Z,46.18
2019-06-20T02:31:57.821Z,45.82
2019-06-20T02:34:28.044Z,45.77
2019-06-20T02:36:59.785Z,45.93
2019-06-20T02:39:30.845Z,45.68
2019-06-20T02:42:01.217Z,46.12
2019-06-20T02:44:31.434Z,45.92
2019-06-20T02:47:01.640Z,45.74
2019-06-20T02:49:34.508Z,46.10
2019-06-20T02:52:05.203Z,45.79
2019-06-20T02:54:37.852Z,45.93
2019-06-20T02:57:08.127Z,46.20
2019-06-20T02:59:39.004Z,46.49
2019-06-20T03:02:10.956Z,46.45
2019-06-20T03:04:45.491Z,46.13
2019-06-20T03:07:14.404Z,46.24
2019-06-20T03:09:45.101Z,46.27
2019-06-20T03:12:15.307Z,46.14
2019-06-20T03:14:45.995Z,46.13
2019-06-20T03:17:17.732Z,46.01
2019-06-20T03:19:47.924Z,46.07
2019-06-20T03:22:19.069Z,46.64
2019-06-20T03:24:49.249Z,46.78
2019-06-20T03:27:19.748Z,46.67
2019-06-20T03:29:51.509Z,46.64
2019-06-20T03:32:25.528Z,46.73
2019-06-20T03:34:56.147Z,47.61
2019-06-20T03:37:26.350Z,47.40
2019-06-20T03:39:56.558Z,47.56
2019-06-20T03:42:26.884Z,47.85
2019-06-20T03:45:02.427Z,48.93
2019-06-20T03:47:32.017Z,49.22
2019-06-20T03:50:02.223Z,51.67
2019-06-20T03:52:33.228Z,49.98
2019-06-20T03:55:03.936Z,50.67
2019-06-20T03:57:34.201Z,51.59
2019-06-20T04:00:04.968Z,51.05
2019-06-20T04:02:35.363Z,50.30
2019-06-20T04:05:07.152Z,50.02
2019-06-20T04:07:37.378Z,49.51
2019-06-20T04:10:07.657Z,49.16
2019-06-20T04:12:38.207Z,49.11
2019-06-20T04:15:18.640Z,48.87
2019-06-20T04:17:41.335Z,48.81
2019-06-20T04:20:11.550Z,48.47
2019-06-20T04:22:41.887Z,50.08
2019-06-20T04:25:12.088Z,48.94
2019-06-20T04:27:42.858Z,51.04
2019-06-20T04:30:13.169Z,51.07
2019-06-20T04:32:46.591Z,50.74
2019-06-20T04:35:17.928Z,51.00
2019-06-20T04:37:49.578Z,50.89
2019-06-20T04:40:22.649Z,51.85
2019-06-20T04:42:54.833Z,51.40
2019-06-20T04:45:56.277Z,50.16
2019-06-20T04:48:26.508Z,50.42
2019-06-20T04:50:58.120Z,51.03
2019-06-20T04:53:28.743Z,50.02
2019-06-20T04:55:58.947Z,50.85
2019-06-20T04:58:29.173Z,50.42
2019-06-20T05:00:59.436Z,49.96
2019-06-20T05:03:30.439Z,49.98
2019-06-20T05:06:01.052Z,49.38
2019-06-20T05:08:31.286Z,49.71
2019-06-20T05:11:01.493Z,48.97
2019-06-20T05:13:31.805Z,48.60
2019-06-20T05:16:02.475Z,48.38
2019-06-20T05:18:32.705Z,48.77
2019-06-20T05:21:02.948Z,48.10
2019-06-20T05:23:33.169Z,48.13
2019-06-20T05:26:03.840Z,47.61
2019-06-20T05:28:34.049Z,47.30
2019-06-20T05:31:04.291Z,47.95
2019-06-20T05:33:35.381Z,47.50
2019-06-20T05:36:13.160Z,48.48
2019-06-20T05:38:43.449Z,48.12
2019-06-20T05:41:14.751Z,47.56
2019-06-20T05:43:45.072Z,48.04
2019-06-20T05:46:15.729Z,48.34
2019-06-20T05:48:47.039Z,48.06
2019-06-20T05:51:17.256Z,48.84
2019-06-20T05:53:48.122Z,48.37
2019-06-20T05:56:18.795Z,49.00
2019-06-20T05:58:49.120Z,48.43
2019-06-20T06:01:19.323Z,47.94
2019-06-20T06:03:49.531Z,47.51
2019-06-20T06:06:19.831Z,48.13
2019-06-20T06:08:50.573Z,46.80
2019-06-20T06:11:20.895Z,45.68
2019-06-20T06:13:51.122Z,45.81
2019-06-20T06:16:26.151Z,44.75
2019-06-20T06:18:53.225Z,44.77
2019-06-20T06:21:25.893Z,44.80
2019-06-20T06:23:56.221Z,45.18
2019-06-20T06:26:26.554Z,44.69
2019-06-20T06:28:57.275Z,44.85
2019-06-20T06:31:30.529Z,44.23
2019-06-20T06:34:02.555Z,44.66
2019-06-20T06:36:32.766Z,44.06
2019-06-20T06:39:04.172Z,44.97
2019-06-20T06:41:37.523Z,44.42
2019-06-20T06:44:08.935Z,43.86
2019-06-20T06:46:44.837Z,45.22
2019-06-20T06:49:13.356Z,45.20
2019-06-20T06:51:45.034Z,44.39
2019-06-20T06:54:19.851Z,44.72
2019-06-20T06:56:52.504Z,45.16
2019-06-20T06:59:22.818Z,45.84
2019-06-20T07:01:53.474Z,45.80
2019-06-20T07:04:23.671Z,45.16
2019-06-20T07:06:56.164Z,44.98
2019-06-20T07:09:26.371Z,45.35
2019-06-20T07:11:57.065Z,46.33
2019-06-20T07:14:29.441Z,45.17
2019-06-20T07:17:02.961Z,44.63
2019-06-20T07:19:35.213Z,44.62
2019-06-20T07:22:07.857Z,44.19
2019-06-20T07:24:39.052Z,44.46
2019-06-20T07:27:09.638Z,43.95
2019-06-20T07:29:39.818Z,44.14
2019-06-20T07:32:10.141Z,43.00
2019-06-20T07:34:43.356Z,43.10
2019-06-20T07:37:14.205Z,43.79
2019-06-20T07:39:44.398Z,43.59
2019-06-20T07:42:17.217Z,42.80
2019-06-20T07:44:53.361Z,44.01
2019-06-20T07:47:23.600Z,43.33
2019-06-20T07:49:54.104Z,43.63
2019-06-20T07:52:24.361Z,43.17
2019-06-20T07:54:54.831Z,42.66
2019-06-20T07:57:26.821Z,44.36
2019-06-20T07:59:57.964Z,43.58
2019-06-20T08:02:28.175Z,42.72
2019-06-20T08:05:00.118Z,43.11
2019-06-20T08:07:31.112Z,43.02
2019-06-20T08:10:01.430Z,42.80
2019-06-20T08:12:31.675Z,42.09
2019-06-20T08:15:14.525Z,42.17
2019-06-20T08:17:35.757Z,41.23
2019-06-20T08:20:09.255Z,40.42
2019-06-20T08:22:39.454Z,40.08
2019-06-20T08:25:11.254Z,39.75
2019-06-20T08:27:53.091Z,39.42
2019-06-20T08:30:29.227Z,40.90
2019-06-20T08:33:01.893Z,41.25
2019-06-20T08:35:33.378Z,40.47
2019-06-20T08:38:05.574Z,39.71
2019-06-20T08:40:43.519Z,38.97
2019-06-20T08:43:16.164Z,39.33
2019-06-20T08:45:49.013Z,39.71
2019-06-20T08:48:19.518Z,38.33
2019-06-20T08:50:50.303Z,38.48
2019-06-20T08:53:20.548Z,37.81
2019-06-20T08:55:54.687Z,38.05
2019-06-20T08:58:26.555Z,37.73
2019-06-20T09:00:59.663Z,37.10
2019-06-20T09:03:31.787Z,37.43
2019-06-20T09:08:32.244Z,37.70
2019-06-20T09:11:03.931Z,38.88
2019-06-20T09:13:34.682Z,38.73
2019-06-20T09:16:04.999Z,37.78
2019-06-20T09:18:35.252Z,37.16
2019-06-20T09:21:06.576Z,37.13
2019-06-20T09:23:36.774Z,37.93
2019-06-20T09:26:07.470Z,37.07
2019-06-20T09:28:37.641Z,36.73
2019-06-20T09:31:08.167Z,35.64
2019-06-20T09:33:38.494Z,35.43
2019-06-20T09:36:11.008Z,35.85
2019-06-20T09:38:41.218Z,35.88
2019-06-20T09:41:11.433Z,35.40
2019-06-20T09:43:43.974Z,34.95
2019-06-20T09:46:14.734Z,35.04
2019-06-20T09:48:44.957Z,35.25
2019-06-20T09:51:15.178Z,34.29
2019-06-20T09:53:45.410Z,33.93
2019-06-20T09:56:15.876Z,33.94
2019-06-20T09:58:47.863Z,35.89
2019-06-20T10:01:18.243Z,36.03
2019-06-20T10:03:49.012Z,35.48
2019-06-20T10:06:20.435Z,34.27
2019-06-20T10:08:52.321Z,36.44
2019-06-20T10:11:22.844Z,35.47
2019-06-20T10:13:54.298Z,35.38
2019-06-20T10:16:24.827Z,35.08
2019-06-20T10:18:56.470Z,34.13
2019-06-20T10:21:26.999Z,33.88
2019-06-20T10:23:57.655Z,34.06
2019-06-20T10:26:27.979Z,33.95
2019-06-20T10:28:58.691Z,33.56
2019-06-20T10:31:28.936Z,32.14
2019-06-20T10:33:59.126Z,31.89
2019-06-20T10:36:31.413Z,32.38
2019-06-20T10:39:02.168Z,32.00
2019-06-20T10:41:34.158Z,34.30
2019-06-20T10:44:04.378Z,33.46
2019-06-20T10:46:34.705Z,32.65
2019-06-20T10:49:05.723Z,32.43
2019-06-20T10:51:54.030Z,32.17
2019-06-20T10:54:27.186Z,32.69
2019-06-20T10:56:57.820Z,32.86
2019-06-20T10:59:28.147Z,34.49
2019-06-20T11:02:01.564Z,34.37
2019-06-20T11:04:31.868Z,33.33
2019-06-20T11:07:02.059Z,33.89
2019-06-20T11:09:33.873Z,34.07
2019-06-20T11:12:04.626Z,33.48
2019-06-20T11:14:35.151Z,33.11
2019-06-20T11:17:05.370Z,32.45
2019-06-20T11:19:35.569Z,32.37
2019-06-20T11:22:08.236Z,32.19
2019-06-20T11:24:39.230Z,32.67
2019-06-20T11:27:09.618Z,32.25
2019-06-20T11:29:41.656Z,32.24
2019-06-20T11:32:11.845Z,30.67
2019-06-20T11:34:43.054Z,29.69
2019-06-20T11:37:14.651Z,28.92
2019-06-20T11:39:47.408Z,29.27
2019-06-20T11:42:17.798Z,29.98
2019-06-20T11:44:48.498Z,28.22
2019-06-20T11:47:20.615Z,28.60
2019-06-20T11:49:50.779Z,29.69
2019-06-20T11:52:21.006Z,30.00
2019-06-20T11:54:51.659Z,30.15
2019-06-20T11:57:22.003Z,30.36
2019-06-20T11:59:52.193Z,30.27
2019-06-20T12:02:22.422Z,31.33
2019-06-20T12:04:54.684Z,30.45
2019-06-20T12:07:24.935Z,29.76
2019-06-20T12:09:56.675Z,30.21
2019-06-20T12:12:26.936Z,31.23
2019-06-20T12:14:57.748Z,31.97
2019-06-20T12:17:28.018Z,31.47
2019-06-20T12:19:59.269Z,30.92
2019-06-20T12:22:30.591Z,30.79
2019-06-20T12:25:00.809Z,30.81
2019-06-20T12:27:31.143Z,30.25
2019-06-20T12:30:01.987Z,29.98
2019-06-20T12:32:32.226Z,30.23
2019-06-20T12:35:02.464Z,30.28
2019-06-20T12:37:33.082Z,30.47
2019-06-20T12:40:03.367Z,30.01
2019-06-20T12:42:34.170Z,30.44
2019-06-20T12:45:04.901Z,30.73
2019-06-20T12:47:35.238Z,30.72
2019-06-20T12:50:06.046Z,30.88
2019-06-20T12:52:37.857Z,31.41
2019-06-20T12:55:08.705Z,32.06
2019-06-20T12:57:40.872Z,32.20
2019-06-20T13:00:14.637Z,31.94
2019-06-20T13:02:45.664Z,32.37
2019-06-20T13:05:17.870Z,33.21
2019-06-20T13:07:48.137Z,34.13
2019-06-20T13:10:19.210Z,34.10
2019-06-20T13:12:51.518Z,34.94
2019-06-20T13:15:22.089Z,36.79
2019-06-20T13:17:52.308Z,38.69
2019-06-20T13:20:24.109Z,38.78
2019-06-20T13:22:55.356Z,37.87
2019-06-20T13:25:25.547Z,39.92
2019-06-20T13:27:55.887Z,41.12
2019-06-20T13:30:26.112Z,41.91
2019-06-20T13:32:56.313Z,42.43
2019-06-20T13:35:26.541Z,43.07
2019-06-20T13:37:58.142Z,42.93
2019-06-20T13:40:28.436Z,44.54
2019-06-20T13:42:59.726Z,44.12
2019-06-20T13:45:30.079Z,44.23
2019-06-20T13:48:03.060Z,44.04
2019-06-20T13:50:34.804Z,45.00
2019-06-20T13:53:05.088Z,43.94
2019-06-20T13:55:35.913Z,42.48
2019-06-20T13:58:06.622Z,43.48
2019-06-20T14:00:36.850Z,41.87
2019-06-20T14:03:08.168Z,43.46
2019-06-20T14:05:39.671Z,43.86
2019-06-20T14:08:11.545Z,43.72
2019-06-20T14:10:44.091Z,43.88
2019-06-20T14:13:19.023Z,42.89
2019-06-20T14:15:46.151Z,43.11
2019-06-20T14:18:17.345Z,43.94
2019-06-20T14:20:48.534Z,42.54
2019-06-20T14:23:18.856Z,42.28
2019-06-20T14:25:49.117Z,42.30
2019-06-20T14:28:19.831Z,42.57
2019-06-20T14:30:50.374Z,42.83
2019-06-20T14:33:20.776Z,42.65
2019-06-20T14:35:58.999Z,42.02
2019-06-20T14:38:32.600Z,43.30
2019-06-20T14:41:05.119Z,43.08
2019-06-20T14:43:37.036Z,43.38
2019-06-20T14:46:07.348Z,43.57
2019-06-20T14:48:38.002Z,44.02
2019-06-20T14:51:08.332Z,43.89
2019-06-20T14:53:39.047Z,45.01
2019-06-20T14:56:09.276Z,44.26
2019-06-20T14:58:40.927Z,44.29
2019-06-20T15:01:12.730Z,43.55
2019-06-20T15:03:45.640Z,44.27
2019-06-20T15:06:15.365Z,45.03
2019-06-20T15:08:47.147Z,43.27
2019-06-20T15:11:18.006Z,42.58
2019-06-20T15:13:49.606Z,42.55
2019-06-20T15:16:20.234Z,39.29
2019-06-20T15:18:53.715Z,39.76
2019-06-20T15:21:23.015Z,40.28
2019-06-20T15:23:54.417Z,41.74
2019-06-20T15:26:24.673Z,40.84
2019-06-20T15:28:55.566Z,41.94
2019-06-20T15:31:27.439Z,41.58
2019-06-20T15:33:58.248Z,41.69
2019-06-20T15:36:28.435Z,41.48
2019-06-20T15:38:59.203Z,40.71
2019-06-20T15:41:29.748Z,42.03
2019-06-20T15:44:00.481Z,42.20
2019-06-20T15:46:30.735Z,42.19
2019-06-20T15:49:15.206Z,41.42
2019-06-20T15:51:32.890Z,40.71
2019-06-20T15:54:03.952Z,40.08
2019-06-20T15:56:34.174Z,40.96
2019-06-20T15:59:04.436Z,39.38
2019-06-20T16:01:34.970Z,39.86
2019-06-20T16:04:07.201Z,40.26
2019-06-20T16:06:40.683Z,39.76
2019-06-20T16:09:14.817Z,39.56
2019-06-20T16:11:45.638Z,40.43
2019-06-20T16:14:18.076Z,38.15
2019-06-20T16:16:48.528Z,38.82
2019-06-20T16:19:21.444Z,41.16
2019-06-20T16:21:51.693Z,39.05
2019-06-20T16:24:22.321Z,36.50
2019-06-20T16:26:52.533Z,38.25
2019-06-20T16:29:23.014Z,38.33
2019-06-20T16:31:53.225Z,38.58
2019-06-20T16:34:23.488Z,38.45
2019-06-20T16:37:06.585Z,38.17
2019-06-20T16:39:28.495Z,37.06
2019-06-20T16:41:58.815Z,37.01
2019-06-20T16:44:29.087Z,35.64
2019-06-20T16:46:59.308Z,38.07
2019-06-20T16:49:30.010Z,37.48
2019-06-20T16:52:00.635Z,36.91
2019-06-20T16:54:30.945Z,34.41
2019-06-20T16:57:02.389Z,34.88
2019-06-20T16:59:32.768Z,34.43
2019-06-20T17:02:03.514Z,35.29
2019-06-20T17:04:36.213Z,34.00
2019-06-20T17:07:06.412Z,34.60
2019-06-20T17:09:36.688Z,36.17
2019-06-20T17:12:07.055Z,34.55
2019-06-20T17:14:37.783Z,34.84
2019-06-20T17:17:08.057Z,35.52
2019-06-20T17:19:41.946Z,37.60
2019-06-20T17:22:10.268Z,35.85
2019-06-20T17:24:43.181Z,37.34
2019-06-20T17:27:13.421Z,37.06
2019-06-20T17:29:44.017Z,37.43
2019-06-20T17:32:14.623Z,37.74
2019-06-20T17:34:45.309Z,37.68
2019-06-20T17:37:15.643Z,37.07
2019-06-20T17:39:46.470Z,36.65
2019-06-20T17:42:16.950Z,36.95
2019-06-20T17:44:48.604Z,37.26
2019-06-20T17:47:18.975Z,36.72
2019-06-20T17:49:49.238Z,35.77
2019-06-20T17:52:20.219Z,35.45
2019-06-20T17:54:51.276Z,36.85
2019-06-20T17:57:21.521Z,37.32
2019-06-20T17:59:51.780Z,37.20
2019-06-20T18:02:23.306Z,36.30
2019-06-20T18:04:54.003Z,36.45
2019-06-20T18:07:24.403Z,37.40
2019-06-20T18:09:54.591Z,36.25
2019-06-20T18:12:25.048Z,36.54
2019-06-20T18:14:55.739Z,37.21
2019-06-20T18:17:26.385Z,37.51
2019-06-20T18:19:56.600Z,37.04
2019-06-20T18:22:26.927Z,36.06
2019-06-20T18:24:58.670Z,36.10
2019-06-20T18:27:30.298Z,35.59
2019-06-20T18:30:00.598Z,35.69
2019-06-20T18:32:30.911Z,35.56
2019-06-20T18:35:02.691Z,36.82
2019-06-20T18:37:34.700Z,36.74
2019-06-20T18:40:07.374Z,36.44
2019-06-20T18:42:39.419Z,36.96
2019-06-20T18:45:10.717Z,36.05
2019-06-20T18:47:41.421Z,35.64
2019-06-20T18:50:11.729Z,36.52
2019-06-20T18:52:51.523Z,37.31
2019-06-20T18:55:14.306Z,37.17
2019-06-20T18:57:44.510Z,37.33
2019-06-20T19:00:15.457Z,36.05
2019-06-20T19:02:50.057Z,36.98
2019-06-20T19:05:20.904Z,37.68
2019-06-20T19:07:51.673Z,38.38
2019-06-20T19:10:25.294Z,37.96
2019-06-20T19:12:55.518Z,37.57
2019-06-20T19:15:26.334Z,37.78
2019-06-20T19:17:56.995Z,38.31
2019-06-20T19:20:27.381Z,38.57
2019-06-20T19:22:57.698Z,38.62
2019-06-20T19:25:27.843Z,38.25
2019-06-20T19:27:58.538Z,38.41
2019-06-20T19:30:39.829Z,38.56
2019-06-20T19:33:10.107Z,38.23
2019-06-20T19:35:40.386Z,38.38
2019-06-20T19:38:11.695Z,37.95
2019-06-20T19:40:46.513Z,38.32
2019-06-20T19:43:17.653Z,38.59
2019-06-20T19:45:48.812Z,38.29
2019-06-20T19:48:19.047Z,38.38
2019-06-20T19:50:50.023Z,38.30
2019-06-20T19:53:20.710Z,38.35
2019-06-20T19:55:52.973Z,38.37
2019-06-20T19:58:26.460Z,38.65
2019-06-20T20:00:57.564Z,38.50
2019-06-20T20:03:30.300Z,39.21
2019-06-20T20:06:00.746Z,38.74
2019-06-20T20:08:31.393Z,38.76
2019-06-20T20:11:03.696Z,39.00
2019-06-20T20:13:34.503Z,39.13
2019-06-20T20:16:05.285Z,39.11
2019-06-20T20:18:35.617Z,39.56
2019-06-20T20:21:06.330Z,39.55
2019-06-20T20:23:36.623Z,39.94
2019-06-20T20:26:08.799Z,39.96
2019-06-20T20:28:39.425Z,39.96
2019-06-20T20:31:11.679Z,40.24
2019-06-20T20:33:41.916Z,40.52
2019-06-20T20:36:24.388Z,40.63
2019-06-20T20:38:44.213Z,40.85
2019-06-20T20:41:21.290Z,40.95
2019-06-20T20:43:51.856Z,41.33
2019-06-20T20:46:23.918Z,41.21
2019-06-20T20:48:54.196Z,41.24
2019-06-20T20:51:25.180Z,41.27
2019-06-20T20:53:58.845Z,41.55
2019-06-20T20:56:29.085Z,41.38
2019-06-20T20:58:59.290Z,41.58
2019-06-20T21:01:35.316Z,41.77
2019-06-20T21:04:04.636Z,41.85
2019-06-20T21:06:34.915Z,42.04
2019-06-20T21:09:06.795Z,41.88
2019-06-20T21:11:38.474Z,42.02
2019-06-20T21:14:09.560Z,41.89
2019-06-20T21:16:40.256Z,42.22
2019-06-20T21:19:10.518Z,42.46
2019-06-20T21:21:40.801Z,42.71
2019-06-20T21:24:11.869Z,42.82
2019-06-20T21:26:49.539Z,42.66
2019-06-20T21:29:15.372Z,42.87
2019-06-20T21:31:45.813Z,43.34
2019-06-20T21:34:16.835Z,43.06
2019-06-20T21:36:47.162Z,43.04
2019-06-20T21:39:19.020Z,43.08
2019-06-20T21:41:49.862Z,43.37
2019-06-20T21:44:20.617Z,42.93
2019-06-20T21:46:51.106Z,43.05
2019-06-20T21:49:21.971Z,43.07
2019-06-20T21:51:52.294Z,43.02
2019-06-20T21:54:23.171Z,43.41
2019-06-20T21:56:53.416Z,43.19
2019-06-20T21:59:23.618Z,43.49
2019-06-20T22:01:54.457Z,43.38
2019-06-20T22:04:25.572Z,43.20
2019-06-20T22:06:56.266Z,43.16
2019-06-20T22:09:26.776Z,42.91
2019-06-20T22:11:58.032Z,43.06
2019-06-20T22:14:32.440Z,42.97
2019-06-20T22:17:02.275Z,43.03
2019-06-20T22:19:32.518Z,43.11
2019-06-20T22:22:03.173Z,42.97
2019-06-20T22:24:33.903Z,43.24
2019-06-20T22:27:18.282Z,43.11
2019-06-20T22:29:48.850Z,43.03
2019-06-20T22:32:19.244Z,43.20
2019-06-20T22:34:50.004Z,43.21
2019-06-20T22:37:23.256Z,43.07
2019-06-20T22:39:54.802Z,43.05
2019-06-20T22:42:26.914Z,43.21
2019-06-20T22:44:57.673Z,42.93
2019-06-20T22:47:28.997Z,43.00
2019-06-20T22:49:59.255Z,42.97
2019-06-20T22:52:30.065Z,43.01
2019-06-20T22:55:00.717Z,42.96
2019-06-20T22:57:32.152Z,43.02
2019-06-20T23:00:02.382Z,43.07
2019-06-20T23:02:32.719Z,43.05
2019-06-20T23:05:04.721Z,43.17
2019-06-20T23:07:35.396Z,43.11
2019-06-20T23:10:10.491Z,43.03
2019-06-20T23:12:38.427Z,42.96
2019-06-20T23:15:11.025Z,42.75
2019-06-20T23:17:41.806Z,42.91
2019-06-20T23:20:19.139Z,42.80
2019-06-20T23:23:02.334Z,42.80
2019-06-20T23:25:40.655Z,42.95
2019-06-20T23:28:13.093Z,43.05
2019-06-20T23:30:44.892Z,43.00
2019-06-20T23:33:17.802Z,43.10
2019-06-20T23:36:03.045Z,43.15
2019-06-20T23:38:36.252Z,43.08
2019-06-20T23:41:18.655Z,43.00
2019-06-20T23:43:50.701Z,43.13
2019-06-20T23:46:22.231Z,42.92
2019-06-20T23:49:02.807Z,42.90
2019-06-20T23:51:46.978Z,42.94
2019-06-20T23:54:19.168Z,43.46
2019-06-20T23:56:50.573Z,43.24
2019-06-20T23:59:20.841Z,43.18
